sensor_id;sensor_type;location;lat;lon;timestamp;pressure;altitude;pressure_sealevel;temperature;humidity
64886;BME280;51514;52.206;5.114;2023-02-04T00:00:15;103331.44;;;9.60;78.78
64886;BME280;51514;52.206;5.114;2023-02-04T00:02:41;103325.19;;;9.60;78.72
64886;BME280;51514;52.206;5.114;2023-02-04T00:05:07;103331.19;;;9.49;79.37
64886;BME280;51514;52.206;5.114;2023-02-04T00:07:33;103334.94;;;9.46;79.82
64886;BME280;51514;52.206;5.114;2023-02-04T00:09:58;103327.81;;;9.45;79.88
64886;BME280;51514;52.206;5.114;2023-02-04T00:12:24;103334.84;;;9.48;79.51
64886;BME280;51514;52.206;5.114;2023-02-04T00:14:49;103340.25;;;9.48;79.73
64886;BME280;51514;52.206;5.114;2023-02-04T00:17:14;103337.53;;;9.48;79.48
64886;BME280;51514;52.206;5.114;2023-02-04T00:19:40;103341.19;;;9.47;80.23
64886;BME280;51514;52.206;5.114;2023-02-04T00:22:06;103341.19;;;9.47;80.21
64886;BME280;51514;52.206;5.114;2023-02-04T00:24:36;103343.88;;;9.47;79.92
64886;BME280;51514;52.206;5.114;2023-02-04T00:27:02;103340.31;;;9.46;80.18
64886;BME280;51514;52.206;5.114;2023-02-04T00:29:28;103351.97;;;9.47;80.04
64886;BME280;51514;52.206;5.114;2023-02-04T00:31:53;103354.75;;;9.45;80.07
64886;BME280;51514;52.206;5.114;2023-02-04T00:34:18;103357.72;;;9.41;80.62
64886;BME280;51514;52.206;5.114;2023-02-04T00:36:44;103359.44;;;9.42;80.38
64886;BME280;51514;52.206;5.114;2023-02-04T00:39:10;103364.81;;;9.42;80.45
64886;BME280;51514;52.206;5.114;2023-02-04T00:41:35;103362.41;;;9.37;80.63
64886;BME280;51514;52.206;5.114;2023-02-04T00:44:01;103366.94;;;9.37;80.96
64886;BME280;51514;52.206;5.114;2023-02-04T00:46:26;103373.09;;;9.39;81.24
64886;BME280;51514;52.206;5.114;2023-02-04T00:48:51;103382.13;;;9.38;81.02
64886;BME280;51514;52.206;5.114;2023-02-04T00:51:17;103381.34;;;9.36;81.27
64886;BME280;51514;52.206;5.114;2023-02-04T00:53:42;103375.78;;;9.39;81.74
64886;BME280;51514;52.206;5.114;2023-02-04T00:56:07;103376.66;;;9.39;81.58
64886;BME280;51514;52.206;5.114;2023-02-04T00:58:33;103382.03;;;9.39;81.62
64886;BME280;51514;52.206;5.114;2023-02-04T01:00:58;103383.16;;;9.35;82.11
64886;BME280;51514;52.206;5.114;2023-02-04T01:03:23;103384.03;;;9.36;82.28
64886;BME280;51514;52.206;5.114;2023-02-04T01:05:49;103396.53;;;9.37;81.94
64886;BME280;51514;52.206;5.114;2023-02-04T01:08:14;103389.59;;;9.33;82.20
64886;BME280;51514;52.206;5.114;2023-02-04T01:10:39;103395.94;;;9.32;82.26
64886;BME280;51514;52.206;5.114;2023-02-04T01:13:05;103392.47;;;9.30;82.65
64886;BME280;51514;52.206;5.114;2023-02-04T01:15:33;103399.78;;;9.28;82.73
64886;BME280;51514;52.206;5.114;2023-02-04T01:17:58;103396.22;;;9.27;83.02
64886;BME280;51514;52.206;5.114;2023-02-04T01:20:23;103401.66;;;9.26;83.26
64886;BME280;51514;52.206;5.114;2023-02-04T01:22:49;103401.84;;;9.23;83.45
64886;BME280;51514;52.206;5.114;2023-02-04T01:25:14;103410.88;;;9.22;83.72
64886;BME280;51514;52.206;5.114;2023-02-04T01:27:39;103401.06;;;9.21;83.85
64886;BME280;51514;52.206;5.114;2023-02-04T01:30:05;103409.13;;;9.21;84.12
64886;BME280;51514;52.206;5.114;2023-02-04T01:32:31;103414.63;;;9.19;83.88
64886;BME280;51514;52.206;5.114;2023-02-04T01:34:56;103424.53;;;9.19;84.57
64886;BME280;51514;52.206;5.114;2023-02-04T01:37:21;103425.47;;;9.18;84.46
64886;BME280;51514;52.206;5.114;2023-02-04T01:39:47;103429.13;;;9.17;84.62
64886;BME280;51514;52.206;5.114;2023-02-04T01:42:12;103429.13;;;9.17;84.42
64886;BME280;51514;52.206;5.114;2023-02-04T01:44:38;103431.91;;;9.15;85.06
64886;BME280;51514;52.206;5.114;2023-02-04T01:47:03;103436.41;;;9.14;85.24
64886;BME280;51514;52.206;5.114;2023-02-04T01:49:29;103433.88;;;9.11;85.18
64886;BME280;51514;52.206;5.114;2023-02-04T01:51:55;103431.28;;;9.10;85.45
64886;BME280;51514;52.206;5.114;2023-02-04T01:54:20;103438.47;;;9.09;85.58
64886;BME280;51514;52.206;5.114;2023-02-04T01:56:48;103449.44;;;9.06;86.01
64886;BME280;51514;52.206;5.114;2023-02-04T01:59:16;103447.53;;;9.08;86.42
64886;BME280;51514;52.206;5.114;2023-02-04T02:01:48;103449.25;;;9.09;85.92
64886;BME280;51514;52.206;5.114;2023-02-04T02:04:17;103452.63;;;9.13;85.92
64886;BME280;51514;52.206;5.114;2023-02-04T02:06:50;103450.81;;;9.13;86.09
64886;BME280;51514;52.206;5.114;2023-02-04T02:09:16;103445.44;;;9.13;86.16
64886;BME280;51514;52.206;5.114;2023-02-04T02:11:42;103451.59;;;9.15;86.40
64886;BME280;51514;52.206;5.114;2023-02-04T02:14:07;103453.34;;;9.17;85.67
64886;BME280;51514;52.206;5.114;2023-02-04T02:16:33;103461.50;;;9.15;86.05
64886;BME280;51514;52.206;5.114;2023-02-04T02:18:58;103457.06;;;9.14;85.88
64886;BME280;51514;52.206;5.114;2023-02-04T02:21:48;103458.03;;;9.13;86.08
64886;BME280;51514;52.206;5.114;2023-02-04T02:24:28;103458.88;;;9.13;86.39
64886;BME280;51514;52.206;5.114;2023-02-04T02:26:55;103460.72;;;9.13;86.03
64886;BME280;51514;52.206;5.114;2023-02-04T02:29:22;103456.19;;;9.13;86.40
64886;BME280;51514;52.206;5.114;2023-02-04T02:31:48;103466.97;;;9.13;85.95
64886;BME280;51514;52.206;5.114;2023-02-04T02:34:14;103462.44;;;9.14;86.33
64886;BME280;51514;52.206;5.114;2023-02-04T02:36:40;103461.59;;;9.13;86.46
64886;BME280;51514;52.206;5.114;2023-02-04T02:39:05;103457.06;;;9.14;86.74
64886;BME280;51514;52.206;5.114;2023-02-04T02:41:31;103470.59;;;9.12;86.52
64886;BME280;51514;52.206;5.114;2023-02-04T02:43:56;103469.66;;;9.13;86.63
64886;BME280;51514;52.206;5.114;2023-02-04T02:46:22;103473.22;;;9.14;86.70
64886;BME280;51514;52.206;5.114;2023-02-04T02:48:47;103466.09;;;9.13;86.32
64886;BME280;51514;52.206;5.114;2023-02-04T02:51:13;103470.53;;;9.14;86.55
64886;BME280;51514;52.206;5.114;2023-02-04T02:53:38;103468.78;;;9.13;86.55
64886;BME280;51514;52.206;5.114;2023-02-04T02:56:03;103473.31;;;9.12;86.54
64886;BME280;51514;52.206;5.114;2023-02-04T02:58:31;103468.88;;;9.11;86.48
64886;BME280;51514;52.206;5.114;2023-02-04T03:00:59;103476.94;;;9.11;85.96
64886;BME280;51514;52.206;5.114;2023-02-04T03:03:27;103476.16;;;9.09;86.48
64886;BME280;51514;52.206;5.114;2023-02-04T03:05:58;103482.53;;;9.08;86.01
64886;BME280;51514;52.206;5.114;2023-02-04T03:08:25;103470.00;;;9.07;86.02
64886;BME280;51514;52.206;5.114;2023-02-04T03:10:50;103470.97;;;9.06;85.93
64886;BME280;51514;52.206;5.114;2023-02-04T03:13:17;103470.09;;;9.06;85.91
64886;BME280;51514;52.206;5.114;2023-02-04T03:15:43;103464.78;;;9.04;85.89
64886;BME280;51514;52.206;5.114;2023-02-04T03:18:11;103462.09;;;9.04;86.05
64886;BME280;51514;52.206;5.114;2023-02-04T03:20:38;103464.94;;;9.01;85.77
64886;BME280;51514;52.206;5.114;2023-02-04T03:23:04;103470.41;;;9.00;85.69
64886;BME280;51514;52.206;5.114;2023-02-04T03:25:29;103476.84;;;8.97;85.59
64886;BME280;51514;52.206;5.114;2023-02-04T03:27:57;103467.13;;;8.95;85.48
64886;BME280;51514;52.206;5.114;2023-02-04T03:30:23;103470.06;;;8.90;84.63
64886;BME280;51514;52.206;5.114;2023-02-04T03:32:49;103468.66;;;8.83;84.22
64886;BME280;51514;52.206;5.114;2023-02-04T03:35:15;103473.59;;;8.75;84.13
64886;BME280;51514;52.206;5.114;2023-02-04T03:37:40;103478.47;;;8.67;83.82
64886;BME280;51514;52.206;5.114;2023-02-04T03:40:06;103470.75;;;8.61;83.61
64886;BME280;51514;52.206;5.114;2023-02-04T03:42:32;103484.34;;;8.58;82.98
64886;BME280;51514;52.206;5.114;2023-02-04T03:44:58;103481.94;;;8.53;82.99
64886;BME280;51514;52.206;5.114;2023-02-04T03:47:23;103481.06;;;8.53;83.24
64886;BME280;51514;52.206;5.114;2023-02-04T03:49:48;103482.09;;;8.50;83.66
64886;BME280;51514;52.206;5.114;2023-02-04T03:52:14;103486.66;;;8.48;84.03
64886;BME280;51514;52.206;5.114;2023-02-04T03:54:39;103481.38;;;8.47;84.23
64886;BME280;51514;52.206;5.114;2023-02-04T03:57:04;103489.44;;;8.47;84.22
64886;BME280;51514;52.206;5.114;2023-02-04T03:59:30;103490.38;;;8.46;84.16
64886;BME280;51514;52.206;5.114;2023-02-04T04:01:55;103494.00;;;8.45;83.93
64886;BME280;51514;52.206;5.114;2023-02-04T04:04:20;103491.31;;;8.45;84.07
64886;BME280;51514;52.206;5.114;2023-02-04T04:06:46;103490.56;;;8.43;83.42
64886;BME280;51514;52.206;5.114;2023-02-04T04:09:11;103495.13;;;8.40;84.03
64886;BME280;51514;52.206;5.114;2023-02-04T04:11:36;103487.22;;;8.37;83.52
64886;BME280;51514;52.206;5.114;2023-02-04T04:14:02;103492.59;;;8.37;83.46
64886;BME280;51514;52.206;5.114;2023-02-04T04:16:27;103494.41;;;8.37;82.31
64886;BME280;51514;52.206;5.114;2023-02-04T04:18:53;103492.75;;;8.34;82.07
64886;BME280;51514;52.206;5.114;2023-02-04T04:21:18;103502.78;;;8.31;81.92
64886;BME280;51514;52.206;5.114;2023-02-04T04:23:44;103503.94;;;8.25;81.43
64886;BME280;51514;52.206;5.114;2023-02-04T04:26:09;103504.97;;;8.23;81.63
64886;BME280;51514;52.206;5.114;2023-02-04T04:28:34;103515.03;;;8.19;81.23
64886;BME280;51514;52.206;5.114;2023-02-04T04:30:59;103509.88;;;8.15;81.08
64886;BME280;51514;52.206;5.114;2023-02-04T04:33:25;103507.81;;;8.02;81.11
64886;BME280;51514;52.206;5.114;2023-02-04T04:35:50;103506.91;;;7.85;81.87
64886;BME280;51514;52.206;5.114;2023-02-04T04:38:15;103507.50;;;7.73;81.97
64886;BME280;51514;52.206;5.114;2023-02-04T04:40:41;103506.28;;;7.61;82.38
64886;BME280;51514;52.206;5.114;2023-02-04T04:43:06;103510.16;;;7.55;82.83
64886;BME280;51514;52.206;5.114;2023-02-04T04:45:31;103506.38;;;7.59;83.17
64886;BME280;51514;52.206;5.114;2023-02-04T04:47:57;103510.72;;;7.62;83.44
64886;BME280;51514;52.206;5.114;2023-02-04T04:50:22;103511.66;;;7.61;83.18
64886;BME280;51514;52.206;5.114;2023-02-04T04:52:47;103510.66;;;7.63;82.64
64886;BME280;51514;52.206;5.114;2023-02-04T04:55:13;103513.34;;;7.63;82.30
64886;BME280;51514;52.206;5.114;2023-02-04T04:57:38;103510.78;;;7.60;82.55
64886;BME280;51514;52.206;5.114;2023-02-04T05:00:05;103506.44;;;7.58;83.00
64886;BME280;51514;52.206;5.114;2023-02-04T05:02:31;103508.25;;;7.57;83.54
64886;BME280;51514;52.206;5.114;2023-02-04T05:04:56;103509.13;;;7.58;82.87
64886;BME280;51514;52.206;5.114;2023-02-04T05:07:21;103513.78;;;7.54;83.22
64886;BME280;51514;52.206;5.114;2023-02-04T05:09:47;103509.34;;;7.53;82.78
64886;BME280;51514;52.206;5.114;2023-02-04T05:12:12;103509.44;;;7.52;82.83
64886;BME280;51514;52.206;5.114;2023-02-04T05:14:37;103521.97;;;7.51;82.91
64886;BME280;51514;52.206;5.114;2023-02-04T05:17:03;103514.72;;;7.53;83.33
64886;BME280;51514;52.206;5.114;2023-02-04T05:19:28;103516.41;;;7.56;84.12
64886;BME280;51514;52.206;5.114;2023-02-04T05:21:53;103510.09;;;7.57;84.18
64886;BME280;51514;52.206;5.114;2023-02-04T05:24:19;103509.06;;;7.59;84.61
64886;BME280;51514;52.206;5.114;2023-02-04T05:26:44;103507.31;;;7.58;84.90
64886;BME280;51514;52.206;5.114;2023-02-04T05:29:09;103517.91;;;7.61;84.79
64886;BME280;51514;52.206;5.114;2023-02-04T05:31:35;103512.84;;;7.55;85.37
64886;BME280;51514;52.206;5.114;2023-02-04T05:34:00;103512.78;;;7.57;85.55
64886;BME280;51514;52.206;5.114;2023-02-04T05:36:26;103514.59;;;7.56;85.19
64886;BME280;51514;52.206;5.114;2023-02-04T05:38:51;103524.34;;;7.57;86.11
64886;BME280;51514;52.206;5.114;2023-02-04T05:41:16;103539.84;;;7.52;86.95
64886;BME280;51514;52.206;5.114;2023-02-04T05:43:42;103548.81;;;7.51;86.53
64886;BME280;51514;52.206;5.114;2023-02-04T05:46:07;103548.75;;;7.53;86.94
64886;BME280;51514;52.206;5.114;2023-02-04T05:48:32;103539.53;;;7.58;87.53
64886;BME280;51514;52.206;5.114;2023-02-04T05:50:58;103553.88;;;7.57;88.44
64886;BME280;51514;52.206;5.114;2023-02-04T05:53:23;103554.06;;;7.54;88.96
64886;BME280;51514;52.206;5.114;2023-02-04T05:55:48;103556.69;;;7.56;89.30
64886;BME280;51514;52.206;5.114;2023-02-04T05:58:14;103557.56;;;7.56;89.85
64886;BME280;51514;52.206;5.114;2023-02-04T06:00:39;103549.31;;;7.59;90.01
64886;BME280;51514;52.206;5.114;2023-02-04T06:03:04;103555.34;;;7.64;89.71
64886;BME280;51514;52.206;5.114;2023-02-04T06:05:30;103560.59;;;7.67;90.50
64886;BME280;51514;52.206;5.114;2023-02-04T06:07:55;103557.75;;;7.70;90.30
64886;BME280;51514;52.206;5.114;2023-02-04T06:10:21;103563.97;;;7.71;90.26
64886;BME280;51514;52.206;5.114;2023-02-04T06:12:47;103568.41;;;7.72;91.35
64886;BME280;51514;52.206;5.114;2023-02-04T06:15:12;103564.03;;;7.69;91.57
64886;BME280;51514;52.206;5.114;2023-02-04T06:17:38;103571.03;;;7.74;91.03
64886;BME280;51514;52.206;5.114;2023-02-04T06:20:05;103576.88;;;7.82;91.27
64886;BME280;51514;52.206;5.114;2023-02-04T06:22:30;103579.31;;;7.88;91.03
64886;BME280;51514;52.206;5.114;2023-02-04T06:24:56;103578.13;;;7.93;90.89
64886;BME280;51514;52.206;5.114;2023-02-04T06:27:21;103587.13;;;7.92;90.82
64886;BME280;51514;52.206;5.114;2023-02-04T06:29:53;103597.66;;;7.97;90.84
64886;BME280;51514;52.206;5.114;2023-02-04T06:32:19;103598.47;;;7.99;90.64
64886;BME280;51514;52.206;5.114;2023-02-04T06:34:44;103606.53;;;7.99;90.88
64886;BME280;51514;52.206;5.114;2023-02-04T06:37:10;103609.09;;;8.00;90.24
64886;BME280;51514;52.206;5.114;2023-02-04T06:39:38;103608.88;;;8.05;90.39
64886;BME280;51514;52.206;5.114;2023-02-04T06:42:03;103614.25;;;8.05;90.39
64886;BME280;51514;52.206;5.114;2023-02-04T06:44:29;103617.75;;;8.07;90.30
64886;BME280;51514;52.206;5.114;2023-02-04T06:46:54;103622.88;;;8.12;90.23
64886;BME280;51514;52.206;5.114;2023-02-04T06:49:20;103621.06;;;8.12;90.19
64886;BME280;51514;52.206;5.114;2023-02-04T06:51:45;103620.94;;;8.15;89.95
64886;BME280;51514;52.206;5.114;2023-02-04T06:54:12;103621.81;;;8.16;90.03
64886;BME280;51514;52.206;5.114;2023-02-04T06:56:37;103626.25;;;8.17;89.74
64886;BME280;51514;52.206;5.114;2023-02-04T06:59:03;103626.16;;;8.18;89.66
64886;BME280;51514;52.206;5.114;2023-02-04T07:01:28;103636.03;;;8.18;89.51
64886;BME280;51514;52.206;5.114;2023-02-04T07:03:53;103637.78;;;8.19;89.34
64886;BME280;51514;52.206;5.114;2023-02-04T07:06:19;103635.16;;;8.17;89.64
64886;BME280;51514;52.206;5.114;2023-02-04T07:08:44;103636.91;;;8.18;89.82
64886;BME280;51514;52.206;5.114;2023-02-04T07:11:11;103639.59;;;8.18;89.44
64886;BME280;51514;52.206;5.114;2023-02-04T07:13:37;103640.41;;;8.20;89.71
64886;BME280;51514;52.206;5.114;2023-02-04T07:16:02;103639.59;;;8.18;89.01
64886;BME280;51514;52.206;5.114;2023-02-04T07:18:27;103638.66;;;8.19;89.62
64886;BME280;51514;52.206;5.114;2023-02-04T07:20:53;103649.41;;;8.19;88.96
64886;BME280;51514;52.206;5.114;2023-02-04T07:23:18;103652.97;;;8.20;89.44
64886;BME280;51514;52.206;5.114;2023-02-04T07:25:43;103652.16;;;8.18;89.16
64886;BME280;51514;52.206;5.114;2023-02-04T07:28:09;103661.31;;;8.14;89.99
64886;BME280;51514;52.206;5.114;2023-02-04T07:30:34;103649.69;;;8.13;89.78
64886;BME280;51514;52.206;5.114;2023-02-04T07:32:59;103654.44;;;8.08;90.21
64886;BME280;51514;52.206;5.114;2023-02-04T07:35:25;103651.75;;;8.08;90.14
64886;BME280;51514;52.206;5.114;2023-02-04T07:37:50;103662.25;;;8.13;89.95
64886;BME280;51514;52.206;5.114;2023-02-04T07:40:16;103666.75;;;8.12;89.84
64886;BME280;51514;52.206;5.114;2023-02-04T07:42:41;103663.00;;;8.16;89.78
64886;BME280;51514;52.206;5.114;2023-02-04T07:45:07;103666.41;;;8.20;89.77
64886;BME280;51514;52.206;5.114;2023-02-04T07:47:32;103669.91;;;8.22;90.11
64886;BME280;51514;52.206;5.114;2023-02-04T07:49:58;103673.28;;;8.25;89.72
64886;BME280;51514;52.206;5.114;2023-02-04T07:52:24;103670.59;;;8.25;90.31
64886;BME280;51514;52.206;5.114;2023-02-04T07:54:49;103674.09;;;8.27;89.97
64886;BME280;51514;52.206;5.114;2023-02-04T07:57:17;103670.38;;;8.30;90.21
64886;BME280;51514;52.206;5.114;2023-02-04T07:59:42;103678.41;;;8.31;89.99
64886;BME280;51514;52.206;5.114;2023-02-04T08:02:08;103673.94;;;8.30;89.68
64886;BME280;51514;52.206;5.114;2023-02-04T08:04:34;103687.25;;;8.33;90.07
64886;BME280;51514;52.206;5.114;2023-02-04T08:07:00;103687.19;;;8.35;89.44
64886;BME280;51514;52.206;5.114;2023-02-04T08:09:25;103692.41;;;8.38;89.75
64886;BME280;51514;52.206;5.114;2023-02-04T08:11:51;103699.47;;;8.40;89.73
64886;BME280;51514;52.206;5.114;2023-02-04T08:14:17;103697.47;;;8.44;89.23
64886;BME280;51514;52.206;5.114;2023-02-04T08:16:42;103707.22;;;8.47;89.44
64886;BME280;51514;52.206;5.114;2023-02-04T08:19:07;103708.97;;;8.48;89.30
64886;BME280;51514;52.206;5.114;2023-02-04T08:21:33;103707.09;;;8.50;89.50
64886;BME280;51514;52.206;5.114;2023-02-04T08:23:58;103718.63;;;8.52;90.18
64886;BME280;51514;52.206;5.114;2023-02-04T08:26:23;103722.19;;;8.52;89.81
64886;BME280;51514;52.206;5.114;2023-02-04T08:28:48;103722.03;;;8.55;89.94
64886;BME280;51514;52.206;5.114;2023-02-04T08:31:14;103725.53;;;8.57;89.93
64886;BME280;51514;52.206;5.114;2023-02-04T08:33:39;103729.81;;;8.61;90.05
64886;BME280;51514;52.206;5.114;2023-02-04T08:36:06;103728.88;;;8.62;90.71
64886;BME280;51514;52.206;5.114;2023-02-04T08:38:31;103732.19;;;8.67;90.50
64886;BME280;51514;52.206;5.114;2023-02-04T08:40:56;103728.47;;;8.70;90.73
64886;BME280;51514;52.206;5.114;2023-02-04T08:43:24;103736.41;;;8.73;90.77
64886;BME280;51514;52.206;5.114;2023-02-04T08:45:49;103739.91;;;8.75;91.04
64886;BME280;51514;52.206;5.114;2023-02-04T08:48:14;103735.16;;;8.80;90.88
64886;BME280;51514;52.206;5.114;2023-02-04T08:50:40;103743.81;;;8.87;90.73
64886;BME280;51514;52.206;5.114;2023-02-04T08:53:05;103742.59;;;8.92;91.37
64886;BME280;51514;52.206;5.114;2023-02-04T08:55:30;103737.09;;;8.95;91.61
64886;BME280;51514;52.206;5.114;2023-02-04T08:57:56;103736.84;;;9.00;91.67
64886;BME280;51514;52.206;5.114;2023-02-04T09:00:23;103741.03;;;9.05;91.22
64886;BME280;51514;52.206;5.114;2023-02-04T09:02:48;103747.91;;;9.11;90.90
64886;BME280;51514;52.206;5.114;2023-02-04T09:05:14;103746.75;;;9.17;90.53
64886;BME280;51514;52.206;5.114;2023-02-04T09:07:39;103745.56;;;9.22;90.48
64886;BME280;51514;52.206;5.114;2023-02-04T09:10:05;103751.66;;;9.26;90.65
64886;BME280;51514;52.206;5.114;2023-02-04T09:12:30;103740.75;;;9.29;90.38
64886;BME280;51514;52.206;5.114;2023-02-04T09:14:55;103747.69;;;9.33;90.66
64886;BME280;51514;52.206;5.114;2023-02-04T09:17:21;103754.66;;;9.37;90.41
64886;BME280;51514;52.206;5.114;2023-02-04T09:19:46;103759.72;;;9.43;90.18
64886;BME280;51514;52.206;5.114;2023-02-04T09:22:11;103761.31;;;9.47;90.27
64886;BME280;51514;52.206;5.114;2023-02-04T09:24:37;103761.94;;;9.52;90.42
64886;BME280;51514;52.206;5.114;2023-02-04T09:27:02;103764.47;;;9.55;90.26
64886;BME280;51514;52.206;5.114;2023-02-04T09:29:28;103756.47;;;9.53;90.85
64886;BME280;51514;52.206;5.114;2023-02-04T09:31:53;103762.56;;;9.57;90.97
64886;BME280;51514;52.206;5.114;2023-02-04T09:34:18;103759.53;;;9.63;91.18
64886;BME280;51514;52.206;5.114;2023-02-04T09:36:44;103759.09;;;9.72;90.61
64886;BME280;51514;52.206;5.114;2023-02-04T09:39:09;103758.59;;;9.81;90.33
64886;BME280;51514;52.206;5.114;2023-02-04T09:41:38;103752.69;;;9.91;90.06
64886;BME280;51514;52.206;5.114;2023-02-04T09:44:09;103763.13;;;9.97;90.16
64886;BME280;51514;52.206;5.114;2023-02-04T09:46:37;103762.81;;;10.03;89.91
64886;BME280;51514;52.206;5.114;2023-02-04T09:49:02;103770.47;;;10.10;89.54
64886;BME280;51514;52.206;5.114;2023-02-04T09:51:29;103773.88;;;10.14;89.16
64886;BME280;51514;52.206;5.114;2023-02-04T09:54:20;103769.91;;;10.21;88.40
64886;BME280;51514;52.206;5.114;2023-02-04T09:56:46;103762.19;;;10.31;88.29
64886;BME280;51514;52.206;5.114;2023-02-04T09:59:16;103775.25;;;10.38;87.64
64886;BME280;51514;52.206;5.114;2023-02-04T10:01:42;103782.13;;;10.44;86.77
64886;BME280;51514;52.206;5.114;2023-02-04T10:04:12;103777.94;;;10.54;85.76
64886;BME280;51514;52.206;5.114;2023-02-04T10:06:39;103783.69;;;10.64;85.23
64886;BME280;51514;52.206;5.114;2023-02-04T10:09:05;103786.63;;;10.75;84.72
64886;BME280;51514;52.206;5.114;2023-02-04T10:11:33;103784.56;;;10.80;84.02
64886;BME280;51514;52.206;5.114;2023-02-04T10:14:00;103771.75;;;10.83;84.10
64886;BME280;51514;52.206;5.114;2023-02-04T10:16:29;103782.69;;;10.96;82.96
64886;BME280;51514;52.206;5.114;2023-02-04T10:19:03;103787.75;;;11.02;80.75
64886;BME280;51514;52.206;5.114;2023-02-04T10:21:32;103785.56;;;11.09;80.86
64886;BME280;51514;52.206;5.114;2023-02-04T10:24:00;103789.22;;;11.08;80.11
64886;BME280;51514;52.206;5.114;2023-02-04T10:26:28;103781.28;;;11.05;80.54
64886;BME280;51514;52.206;5.114;2023-02-04T10:29:05;103784.50;;;11.11;80.27
64886;BME280;51514;52.206;5.114;2023-02-04T10:31:39;103788.59;;;11.18;80.23
64886;BME280;51514;52.206;5.114;2023-02-04T10:37:20;103790.94;;;11.24;80.37
64886;BME280;51514;52.206;5.114;2023-02-04T10:39:46;103789.59;;;11.31;79.48
64886;BME280;51514;52.206;5.114;2023-02-04T10:42:21;103795.41;;;11.40;78.46
64886;BME280;51514;52.206;5.114;2023-02-04T10:44:47;103784.78;;;11.37;78.85
64886;BME280;51514;52.206;5.114;2023-02-04T10:47:19;103787.06;;;11.28;79.23
64886;BME280;51514;52.206;5.114;2023-02-04T10:52:25;103796.75;;;11.47;78.58
64886;BME280;51514;52.206;5.114;2023-02-04T10:54:54;103781.94;;;11.54;78.87
64886;BME280;51514;52.206;5.114;2023-02-04T10:57:22;103780.78;;;11.58;77.53
64886;BME280;51514;52.206;5.114;2023-02-04T10:59:50;103784.25;;;11.60;76.44
64886;BME280;51514;52.206;5.114;2023-02-04T11:04:51;103790.63;;;11.59;75.78
64886;BME280;51514;52.206;5.114;2023-02-04T11:07:17;103789.09;;;11.55;75.35
64886;BME280;51514;52.206;5.114;2023-02-04T11:09:43;103790.06;;;11.54;74.82
64886;BME280;51514;52.206;5.114;2023-02-04T11:12:34;103787.84;;;11.60;75.18
64886;BME280;51514;52.206;5.114;2023-02-04T11:14:59;103784.47;;;11.71;75.80
64886;BME280;51514;52.206;5.114;2023-02-04T11:17:30;103791.78;;;11.85;75.52
64886;BME280;51514;52.206;5.114;2023-02-04T11:19:56;103784.91;;;11.93;74.42
64886;BME280;51514;52.206;5.114;2023-02-04T11:22:41;103778.28;;;11.99;72.53
64886;BME280;51514;52.206;5.114;2023-02-04T11:25:32;103783.00;;;11.95;71.71
64886;BME280;51514;52.206;5.114;2023-02-04T11:27:58;103782.41;;;11.90;72.65
64886;BME280;51514;52.206;5.114;2023-02-04T11:30:30;103780.56;;;11.91;73.17
64886;BME280;51514;52.206;5.114;2023-02-04T11:33:02;103780.69;;;11.89;72.62
64886;BME280;51514;52.206;5.114;2023-02-04T11:35:28;103776.81;;;11.93;72.84
64886;BME280;51514;52.206;5.114;2023-02-04T11:37:54;103781.66;;;11.88;73.12
64886;BME280;51514;52.206;5.114;2023-02-04T11:40:22;103786.84;;;11.91;74.62
64886;BME280;51514;52.206;5.114;2023-02-04T11:42:48;103776.72;;;11.95;74.53
64886;BME280;51514;52.206;5.114;2023-02-04T11:45:16;103773.50;;;12.02;74.84
64886;BME280;51514;52.206;5.114;2023-02-04T11:47:44;103775.75;;;12.10;74.61
64886;BME280;51514;52.206;5.114;2023-02-04T11:50:25;103772.66;;;12.16;74.37
64886;BME280;51514;52.206;5.114;2023-02-04T11:52:55;103772.56;;;12.18;74.50
64886;BME280;51514;52.206;5.114;2023-02-04T11:55:21;103765.81;;;12.11;74.37
64886;BME280;51514;52.206;5.114;2023-02-04T11:57:50;103774.50;;;12.16;74.76
64886;BME280;51514;52.206;5.114;2023-02-04T12:00:20;103770.81;;;12.17;73.76
64886;BME280;51514;52.206;5.114;2023-02-04T12:02:47;103770.91;;;12.15;74.10
64886;BME280;51514;52.206;5.114;2023-02-04T12:05:15;103775.44;;;12.15;74.28
64886;BME280;51514;52.206;5.114;2023-02-04T12:07:42;103774.03;;;12.09;73.95
64886;BME280;51514;52.206;5.114;2023-02-04T12:10:33;103780.19;;;11.97;73.62
64886;BME280;51514;52.206;5.114;2023-02-04T12:12:58;103781.44;;;11.91;73.66
64886;BME280;51514;52.206;5.114;2023-02-04T12:15:31;103797.47;;;11.94;73.78
64886;BME280;51514;52.206;5.114;2023-02-04T12:18:05;103787.81;;;11.90;73.59
64886;BME280;51514;52.206;5.114;2023-02-04T12:20:32;103788.78;;;11.89;73.36
64886;BME280;51514;52.206;5.114;2023-02-04T12:22:57;103785.09;;;11.90;73.08
64886;BME280;51514;52.206;5.114;2023-02-04T12:25:23;103792.25;;;11.91;73.18
64886;BME280;51514;52.206;5.114;2023-02-04T12:27:48;103790.63;;;11.89;73.16
64886;BME280;51514;52.206;5.114;2023-02-04T12:30:14;103792.34;;;11.90;72.30
64886;BME280;51514;52.206;5.114;2023-02-04T12:32:39;103790.63;;;11.89;72.46
64886;BME280;51514;52.206;5.114;2023-02-04T12:35:05;103787.41;;;11.82;71.98
64886;BME280;51514;52.206;5.114;2023-02-04T12:37:30;103789.25;;;11.82;72.88
64886;BME280;51514;52.206;5.114;2023-02-04T12:39:56;103788.28;;;11.83;72.44
64886;BME280;51514;52.206;5.114;2023-02-04T12:42:21;103792.25;;;11.91;72.95
64886;BME280;51514;52.206;5.114;2023-02-04T12:44:47;103791.88;;;11.97;72.36
64886;BME280;51514;52.206;5.114;2023-02-04T12:47:12;103792.53;;;12.01;72.22
64886;BME280;51514;52.206;5.114;2023-02-04T12:49:37;103776.81;;;12.07;72.36
64886;BME280;51514;52.206;5.114;2023-02-04T12:52:04;103779.03;;;12.15;71.65
64886;BME280;51514;52.206;5.114;2023-02-04T12:54:29;103777.78;;;12.21;71.63
64886;BME280;51514;52.206;5.114;2023-02-04T12:56:55;103781.81;;;12.14;71.29
64886;BME280;51514;52.206;5.114;2023-02-04T12:59:23;103785.31;;;12.16;71.66
64886;BME280;51514;52.206;5.114;2023-02-04T13:01:48;103780.88;;;12.15;71.47